Time;durP1;ratioP1;P1;durP2;ratioP2;P2;SDS_P1;SDS_P2;PMS_P1;PMS_P2;Temp;Humidity;BMP_temperature;BMP_pressure;BME280_temperature;BME280_humidity;BME280_pressure;Samples;Min_cycle;Max_cycle;Signal;HPM_P1;HPM_P2
2023/04/12 00:00:16;;;;;;;7.30;4.68;;;;;;;;;;5048139;28;20041;-69
2023/04/12 00:02:43;;;;;;;7.70;4.80;;;;;;;;;;5047605;28;20041;-69
2023/04/12 00:05:10;;;;;;;10.20;5.45;;;;;;;;;;5047430;28;20036;-68
2023/04/12 00:07:37;;;;;;;10.23;5.07;;;;;;;;;;5049680;28;20044;-68
2023/04/12 00:10:05;;;;;;;7.53;4.90;;;;;;;;;;5053695;28;20033;-69
2023/04/12 00:12:30;;;;;;;6.57;4.75;;;;;;;;;;5048725;28;20025;-67
2023/04/12 00:14:56;;;;;;;7.18;4.55;;;;;;;;;;5049467;28;20558;-68
2023/04/12 00:17:22;;;;;;;7.32;4.70;;;;;;;;;;5049499;28;20119;-68
2023/04/12 00:19:48;;;;;;;9.93;4.80;;;;;;;;;;5047764;28;20217;-68
2023/04/12 00:22:14;;;;;;;7.85;4.68;;;;;;;;;;5053471;28;20098;-68
2023/04/12 00:24:41;;;;;;;7.32;4.50;;;;;;;;;;5052490;28;20036;-68
2023/04/12 00:27:07;;;;;;;9.10;5.00;;;;;;;;;;5051879;28;20028;-68
2023/04/12 00:29:33;;;;;;;6.10;4.68;;;;;;;;;;5048389;28;21328;-68
2023/04/12 00:32:00;;;;;;;8.27;4.63;;;;;;;;;;5033040;28;20033;-68
2023/04/12 00:34:29;;;;;;;10.52;4.80;;;;;;;;;;5037606;28;20036;-68
2023/04/12 00:36:55;;;;;;;8.15;5.07;;;;;;;;;;5047550;28;20035;-68
2023/04/12 00:39:20;;;;;;;6.50;4.38;;;;;;;;;;5047665;28;20032;-68
2023/04/12 00:41:46;;;;;;;12.48;5.22;;;;;;;;;;5052679;28;20029;-68
2023/04/12 00:44:12;;;;;;;6.55;4.40;;;;;;;;;;5049164;28;20488;-68
2023/04/12 00:46:38;;;;;;;7.03;4.90;;;;;;;;;;5052728;28;20496;-68
2023/04/12 00:49:05;;;;;;;7.85;4.30;;;;;;;;;;5050596;28;20438;-68
2023/04/12 00:51:32;;;;;;;6.95;4.53;;;;;;;;;;5034280;28;20424;-67
2023/04/12 00:54:00;;;;;;;9.35;4.25;;;;;;;;;;5027119;28;20041;-68
2023/04/12 00:56:27;;;;;;;6.22;4.70;;;;;;;;;;5048878;28;20515;-68
2023/04/12 00:58:56;;;;;;;6.82;4.45;;;;;;;;;;5051054;28;20036;-68
2023/04/12 01:01:22;;;;;;;8.55;4.30;;;;;;;;;;5048933;28;20029;-68
2023/04/12 01:03:50;;;;;;;6.00;3.88;;;;;;;;;;5047112;28;20083;-68
2023/04/12 01:06:40;;;;;;;4.72;3.92;;;;;;;;;;5030381;28;20044;-68
2023/04/12 01:09:26;;;;;;;6.15;4.40;;;;;;;;;;5048096;28;20040;-68
2023/04/12 01:12:19;;;;;;;5.80;4.03;;;;;;;;;;5048123;28;20064;-68
2023/04/12 01:14:57;;;;;;;4.65;4.03;;;;;;;;;;5033102;28;20035;-68
2023/04/12 01:17:28;;;;;;;7.53;3.92;;;;;;;;;;5029727;28;20058;-67
2023/04/12 01:20:12;;;;;;;5.53;4.13;;;;;;;;;;5050713;28;20033;-68
2023/04/12 01:22:47;;;;;;;5.72;4.40;;;;;;;;;;5029890;28;20497;-68
2023/04/12 01:25:22;;;;;;;4.80;4.40;;;;;;;;;;5030097;28;20111;-68
2023/04/12 01:27:51;;;;;;;7.93;4.40;;;;;;;;;;5028872;28;20044;-68
2023/04/12 01:30:18;;;;;;;;;;;;;;;;;;5048010;28;20060;-68
2023/04/12 01:32:50;;;;;;;10.10;4.38;;;;;;;;;;5027932;28;19920;-68
2023/04/12 01:35:18;;;;;;;8.13;4.43;;;;;;;;;;5049567;28;20068;-66
2023/04/12 01:37:44;;;;;;;6.55;4.10;;;;;;;;;;5032636;28;20047;-68
2023/04/12 01:40:11;;;;;;;6.57;4.70;;;;;;;;;;5029400;28;20029;-67
2023/04/12 01:42:38;;;;;;;5.72;4.50;;;;;;;;;;5030571;28;20033;-67
2023/04/12 01:45:04;;;;;;;5.63;4.88;;;;;;;;;;5049316;28;20033;-67
2023/04/12 01:47:32;;;;;;;5.22;4.55;;;;;;;;;;5050823;28;20041;-67
2023/04/12 01:50:19;;;;;;;5.72;5.03;;;;;;;;;;5024207;28;20039;-67
2023/04/12 01:52:53;;;;;;;9.85;5.40;;;;;;;;;;5058786;28;20032;-68
2023/04/12 01:55:20;;;;;;;9.30;5.15;;;;;;;;;;5045772;28;20040;-68
2023/04/12 01:57:47;;;;;;;8.63;4.97;;;;;;;;;;5045435;28;20037;-68
2023/04/12 02:00:15;;;;;;;6.32;5.40;;;;;;;;;;5026958;28;20120;-68
2023/04/12 02:02:42;;;;;;;6.75;5.20;;;;;;;;;;5052117;28;20597;-69
2023/04/12 02:05:08;;;;;;;6.47;5.82;;;;;;;;;;5045458;28;20041;-68
2023/04/12 02:07:34;;;;;;;8.27;5.60;;;;;;;;;;5045356;28;20040;-68
2023/04/12 02:10:00;;;;;;;8.48;6.18;;;;;;;;;;5030734;28;20075;-67
2023/04/12 02:12:25;;;;;;;13.43;6.03;;;;;;;;;;5049036;28;20048;-68
2023/04/12 02:14:51;;;;;;;7.28;5.80;;;;;;;;;;5055473;28;20223;-67
2023/04/12 02:17:18;;;;;;;7.32;6.45;;;;;;;;;;5029722;28;20175;-68
2023/04/12 02:19:44;;;;;;;9.38;6.38;;;;;;;;;;5029838;28;20044;-68
2023/04/12 02:22:10;;;;;;;8.23;6.47;;;;;;;;;;5036676;28;20037;-68
2023/04/12 02:24:36;;;;;;;7.03;5.78;;;;;;;;;;5047056;28;20025;-68
2023/04/12 02:27:02;;;;;;;9.70;6.70;;;;;;;;;;5047938;28;20049;-68
2023/04/12 02:29:28;;;;;;;6.25;5.65;;;;;;;;;;5045758;28;20458;-68
2023/04/12 02:31:53;;;;;;;6.10;5.47;;;;;;;;;;5031251;28;20091;-68
2023/04/12 02:34:21;;;;;;;8.13;6.43;;;;;;;;;;5028222;28;20029;-68
2023/04/12 02:36:54;;;;;;;9.98;6.38;;;;;;;;;;5028390;28;20029;-68
2023/04/12 02:39:20;;;;;;;8.32;6.30;;;;;;;;;;5024269;28;20043;-68
2023/04/12 02:41:48;;;;;;;17.48;6.28;;;;;;;;;;5029637;28;20063;-68
2023/04/12 02:44:15;;;;;;;11.10;7.07;;;;;;;;;;5029111;28;20477;-68
2023/04/12 02:47:01;;;;;;;10.98;6.38;;;;;;;;;;5032047;28;20033;-68
2023/04/12 02:49:27;;;;;;;11.80;6.57;;;;;;;;;;5047963;28;20075;-68
2023/04/12 02:51:53;;;;;;;7.10;5.25;;;;;;;;;;5029231;28;20551;-68
2023/04/12 02:54:24;;;;;;;7.30;5.97;;;;;;;;;;5054646;28;20079;-68
2023/04/12 02:56:53;;;;;;;8.90;6.20;;;;;;;;;;5044070;28;20037;-67
2023/04/12 02:59:44;;;;;;;6.55;5.85;;;;;;;;;;5045531;28;20111;-68
2023/04/12 03:02:31;;;;;;;8.10;5.57;;;;;;;;;;5043202;28;20047;-69
2023/04/12 03:05:02;;;;;;;10.02;6.18;;;;;;;;;;5024599;28;20056;-69
2023/04/12 03:07:35;;;;;;;6.68;5.40;;;;;;;;;;5029072;28;20037;-68
2023/04/12 03:10:04;;;;;;;6.75;5.20;;;;;;;;;;5030972;28;20063;-69
2023/04/12 03:12:29;;;;;;;7.05;5.35;;;;;;;;;;5028996;28;20059;-68
2023/04/12 03:15:13;;;;;;;6.47;5.05;;;;;;;;;;5028425;28;20647;-67
2023/04/12 03:17:38;;;;;;;9.02;5.93;;;;;;;;;;5029318;28;20108;-68
2023/04/12 03:20:08;;;;;;;7.57;5.30;;;;;;;;;;5031292;28;20048;-67
2023/04/12 03:22:37;;;;;;;6.53;5.50;;;;;;;;;;5023212;28;20052;-68
2023/04/12 03:25:08;;;;;;;5.30;4.90;;;;;;;;;;5029732;28;20029;-68
2023/04/12 03:27:35;;;;;;;8.27;5.72;;;;;;;;;;5029369;28;20064;-67
2023/04/12 03:30:02;;;;;;;4.47;4.18;;;;;;;;;;5027552;28;20599;-68
2023/04/12 03:32:31;;;;;;;5.30;4.90;;;;;;;;;;5023241;28;20040;-68
2023/04/12 03:34:59;;;;;;;7.22;5.80;;;;;;;;;;5031019;28;20055;-68
2023/04/12 03:37:25;;;;;;;6.95;5.50;;;;;;;;;;5033214;28;20036;-67
2023/04/12 03:39:53;;;;;;;13.98;6.10;;;;;;;;;;5033793;28;20041;-67
2023/04/12 03:42:22;;;;;;;5.75;5.18;;;;;;;;;;5046833;28;20116;-68
2023/04/12 03:44:48;;;;;;;5.28;4.82;;;;;;;;;;5032757;28;20041;-68
2023/04/12 03:47:14;;;;;;;6.25;5.65;;;;;;;;;;5033346;28;20039;-68
2023/04/12 03:49:40;;;;;;;9.80;5.88;;;;;;;;;;5048301;28;20039;-67
2023/04/12 03:52:11;;;;;;;10.15;6.22;;;;;;;;;;5053171;28;20116;-68
2023/04/12 03:54:38;;;;;;;6.30;5.70;;;;;;;;;;5032591;28;20055;-68
2023/04/12 03:57:07;;;;;;;6.78;5.22;;;;;;;;;;5031120;28;20064;-67
2023/04/12 03:59:39;;;;;;;6.65;6.05;;;;;;;;;;5027311;28;20121;-67
2023/04/12 04:02:06;;;;;;;9.23;6.20;;;;;;;;;;5034008;28;20142;-67
2023/04/12 04:04:36;;;;;;;12.10;5.90;;;;;;;;;;5057474;28;20041;-67
2023/04/12 04:07:06;;;;;;;7.25;6.68;;;;;;;;;;5029392;28;20481;-67
2023/04/12 04:09:40;;;;;;;7.20;6.68;;;;;;;;;;5031266;28;20504;-67
2023/04/12 04:12:07;;;;;;;7.68;7.18;;;;;;;;;;5035849;28;20037;-67
2023/04/12 04:14:35;;;;;;;9.02;7.22;;;;;;;;;;5030736;28;20120;-68
2023/04/12 04:17:02;;;;;;;10.35;6.50;;;;;;;;;;5033458;28;20535;-67
2023/04/12 04:19:28;;;;;;;8.05;7.35;;;;;;;;;;5064238;28;20119;-67
2023/04/12 04:21:55;;;;;;;7.65;7.05;;;;;;;;;;5038882;28;20496;-67
2023/04/12 04:24:23;;;;;;;8.35;7.10;;;;;;;;;;5048639;28;20025;-67
2023/04/12 04:26:53;;;;;;;18.50;9.85;;;;;;;;;;5032761;28;20127;-65
2023/04/12 04:29:24;;;;;;;15.73;13.95;;;;;;;;;;5032546;28;20470;-65
2023/04/12 04:31:52;;;;;;;10.75;8.68;;;;;;;;;;5028921;28;20028;-66
2023/04/12 04:34:18;;;;;;;15.95;13.85;;;;;;;;;;5032209;28;20045;-65
2023/04/12 04:36:46;;;;;;;12.00;10.75;;;;;;;;;;5031345;28;20048;-66
2023/04/12 04:39:19;;;;;;;10.43;7.10;;;;;;;;;;5029617;28;20041;-66
2023/04/12 04:41:45;;;;;;;10.77;7.80;;;;;;;;;;5028010;28;20048;-66
2023/04/12 04:44:22;;;;;;;7.43;6.65;;;;;;;;;;5032558;28;20040;-66
2023/04/12 04:46:53;;;;;;;8.60;7.63;;;;;;;;;;5030280;28;20037;-66
2023/04/12 04:49:18;;;;;;;9.90;8.95;;;;;;;;;;5030302;28;20099;-65
2023/04/12 04:51:44;;;;;;;8.93;7.28;;;;;;;;;;5053038;28;20063;-66
2023/04/12 04:54:12;;;;;;;8.35;7.63;;;;;;;;;;5049276;28;20554;-66
2023/04/12 04:56:40;;;;;;;8.40;7.28;;;;;;;;;;5026177;28;20061;-65
2023/04/12 04:59:06;;;;;;;8.25;7.43;;;;;;;;;;5053728;28;20037;-66
2023/04/12 05:01:34;;;;;;;7.20;6.57;;;;;;;;;;5034570;28;20093;-65
2023/04/12 05:04:01;;;;;;;7.63;7.03;;;;;;;;;;5029759;28;20099;-66
2023/04/12 05:06:27;;;;;;;7.95;7.25;;;;;;;;;;5030427;28;20029;-66
2023/04/12 05:08:53;;;;;;;8.88;7.95;;;;;;;;;;5032523;28;20401;-66
2023/04/12 05:11:21;;;;;;;8.38;7.68;;;;;;;;;;5029411;28;20037;-66
2023/04/12 05:13:47;;;;;;;11.40;8.20;;;;;;;;;;5029972;28;20041;-66
2023/04/12 05:16:14;;;;;;;13.75;10.23;;;;;;;;;;5032759;28;20033;-66
2023/04/12 05:18:40;;;;;;;7.53;6.90;;;;;;;;;;5049860;28;20374;-66
2023/04/12 05:21:06;;;;;;;9.13;8.25;;;;;;;;;;5048522;28;20140;-67
2023/04/12 05:23:35;;;;;;;10.57;7.82;;;;;;;;;;5032999;28;20040;-66
2023/04/12 05:26:01;;;;;;;;;;;;;;;;;;5044433;28;20053;-66
2023/04/12 05:28:26;;;;;;;10.32;7.93;;;;;;;;;;5032626;28;19920;-66
2023/04/12 05:30:52;;;;;;;7.35;6.72;;;;;;;;;;5048457;28;20037;-66
2023/04/12 05:33:22;;;;;;;11.23;8.48;;;;;;;;;;5031700;28;20028;-65
2023/04/12 05:35:48;;;;;;;9.80;8.15;;;;;;;;;;5047434;28;20127;-66
2023/04/12 05:38:13;;;;;;;9.65;7.82;;;;;;;;;;5027828;28;20041;-66
2023/04/12 05:40:40;;;;;;;8.13;7.32;;;;;;;;;;5048397;28;20426;-66
2023/04/12 05:43:11;;;;;;;16.05;12.45;;;;;;;;;;5048324;28;20040;-66
2023/04/12 05:45:37;;;;;;;9.35;8.30;;;;;;;;;;5043550;28;20033;-66
2023/04/12 05:48:02;;;;;;;13.68;8.82;;;;;;;;;;5029966;28;20424;-66
2023/04/12 05:50:28;;;;;;;10.98;8.65;;;;;;;;;;5029595;28;20033;-65
2023/04/12 05:52:54;;;;;;;9.48;8.57;;;;;;;;;;5032762;28;20037;-65
2023/04/12 05:55:25;;;;;;;10.63;8.95;;;;;;;;;;5044941;28;20036;-66
2023/04/12 05:57:51;;;;;;;13.10;10.00;;;;;;;;;;5033123;28;20041;-65
2023/04/12 06:00:20;;;;;;;10.07;8.65;;;;;;;;;;5036528;28;20501;-66
2023/04/12 06:02:46;;;;;;;9.43;8.48;;;;;;;;;;5026409;28;20139;-66
2023/04/12 06:05:15;;;;;;;9.35;8.48;;;;;;;;;;5039262;28;20029;-66
2023/04/12 06:07:45;;;;;;;8.45;7.32;;;;;;;;;;5032225;28;20036;-66
2023/04/12 06:10:14;;;;;;;8.23;7.30;;;;;;;;;;5030569;28;20124;-66
2023/04/12 06:12:40;;;;;;;9.90;8.90;;;;;;;;;;5040522;28;20590;-66
2023/04/12 06:15:06;;;;;;;9.38;8.18;;;;;;;;;;5032072;28;20748;-66
2023/04/12 06:17:32;;;;;;;9.55;8.35;;;;;;;;;;5028082;28;20041;-66
2023/04/12 06:19:57;;;;;;;9.65;8.75;;;;;;;;;;5044733;28;20086;-66
2023/04/12 06:22:23;;;;;;;7.70;7.00;;;;;;;;;;5030385;28;20112;-65
2023/04/12 06:24:49;;;;;;;11.45;7.75;;;;;;;;;;5057929;28;20032;-66
2023/04/12 06:27:15;;;;;;;7.55;6.95;;;;;;;;;;5025689;28;20044;-66
2023/04/12 06:29:41;;;;;;;10.82;8.15;;;;;;;;;;5029198;28;20044;-65
2023/04/12 06:32:07;;;;;;;9.23;7.55;;;;;;;;;;5031761;28;20052;-66
2023/04/12 06:34:32;;;;;;;10.52;7.82;;;;;;;;;;5028198;28;20033;-66
2023/04/12 06:37:01;;;;;;;9.23;7.97;;;;;;;;;;5030746;28;20531;-66
2023/04/12 06:39:27;;;;;;;8.05;7.30;;;;;;;;;;5051389;28;20166;-65
2023/04/12 06:41:53;;;;;;;8.93;7.88;;;;;;;;;;5049009;28;20231;-66
2023/04/12 06:44:19;;;;;;;8.75;7.85;;;;;;;;;;5052192;28;20043;-66
2023/04/12 06:46:45;;;;;;;6.72;6.13;;;;;;;;;;5047367;28;20037;-66
2023/04/12 06:49:11;;;;;;;8.23;7.43;;;;;;;;;;5049070;28;20082;-66
2023/04/12 06:51:36;;;;;;;7.97;7.38;;;;;;;;;;5046172;28;20033;-66
2023/04/12 06:54:02;;;;;;;8.10;7.30;;;;;;;;;;5046002;28;20040;-66
2023/04/12 06:56:27;;;;;;;9.77;8.25;;;;;;;;;;5047934;28;20505;-66
2023/04/12 06:58:53;;;;;;;8.45;7.75;;;;;;;;;;5044706;28;20036;-66
2023/04/12 07:01:18;;;;;;;8.77;8.07;;;;;;;;;;5042331;28;20120;-66
2023/04/12 07:03:44;;;;;;;7.85;7.15;;;;;;;;;;5047273;28;20052;-65
2023/04/12 07:06:10;;;;;;;7.13;6.47;;;;;;;;;;5047406;28;20621;-65
2023/04/12 07:08:35;;;;;;;7.78;7.07;;;;;;;;;;5049461;28;20179;-66
2023/04/12 07:11:02;;;;;;;6.80;6.35;;;;;;;;;;5043822;28;20037;-65
2023/04/12 07:13:28;;;;;;;9.13;7.68;;;;;;;;;;5046668;28;20036;-66
2023/04/12 07:15:54;;;;;;;12.20;8.38;;;;;;;;;;5048050;28;20028;-65
2023/04/12 07:18:20;;;;;;;9.85;8.85;;;;;;;;;;5044090;28;20521;-66
2023/04/12 07:20:51;;;;;;;9.60;8.80;;;;;;;;;;5048083;28;20029;-66
2023/04/12 07:23:17;;;;;;;23.65;19.23;;;;;;;;;;5049830;28;20719;-66
2023/04/12 07:25:43;;;;;;;9.93;8.68;;;;;;;;;;5046926;28;20727;-65
2023/04/12 07:28:09;;;;;;;9.85;9.05;;;;;;;;;;5045637;28;20053;-65
2023/04/12 07:30:35;;;;;;;7.93;7.35;;;;;;;;;;5048635;28;20080;-70
2023/04/12 07:33:04;;;;;;;7.43;6.93;;;;;;;;;;5046717;28;20033;-66
2023/04/12 07:35:30;;;;;;;;;;;;;;;;;;5046290;28;20098;-66
2023/04/12 07:37:56;;;;;;;6.97;6.40;;;;;;;;;;5045850;28;19917;-65
2023/04/12 07:40:22;;;;;;;7.47;6.82;;;;;;;;;;5046728;28;20037;-66
2023/04/12 07:42:47;;;;;;;7.55;7.00;;;;;;;;;;5042568;28;20029;-66
2023/04/12 07:45:13;;;;;;;7.60;7.05;;;;;;;;;;5049317;28;20549;-66
2023/04/12 07:47:38;;;;;;;9.77;8.88;;;;;;;;;;5046361;28;20037;-66
2023/04/12 07:50:05;;;;;;;8.77;8.10;;;;;;;;;;5046368;28;20480;-65
2023/04/12 07:52:31;;;;;;;11.38;9.32;;;;;;;;;;5047162;28;20086;-66
2023/04/12 07:54:56;;;;;;;7.85;7.25;;;;;;;;;;5049325;28;20044;-66
2023/04/12 07:57:23;;;;;;;21.25;14.13;;;;;;;;;;5050116;28;20032;-66
2023/04/12 07:59:49;;;;;;;43.20;24.92;;;;;;;;;;5045481;28;20041;-66
2023/04/12 08:02:23;;;;;;;11.43;8.68;;;;;;;;;;5046085;28;20037;-65
2023/04/12 08:04:57;;;;;;;8.68;7.82;;;;;;;;;;5048425;28;20025;-65
2023/04/12 08:07:23;;;;;;;8.05;7.30;;;;;;;;;;5043680;28;20041;-65
2023/04/12 08:09:49;;;;;;;8.82;6.90;;;;;;;;;;5045594;28;20090;-65
2023/04/12 08:12:15;;;;;;;6.70;6.20;;;;;;;;;;5049856;28;20047;-65
2023/04/12 08:14:41;;;;;;;7.53;6.82;;;;;;;;;;5049666;28;20028;-65
2023/04/12 08:17:07;;;;;;;6.93;6.38;;;;;;;;;;5048468;28;20496;-65
2023/04/12 08:19:33;;;;;;;6.72;6.18;;;;;;;;;;5046225;28;20037;-65
2023/04/12 08:21:59;;;;;;;7.85;7.15;;;;;;;;;;5044235;28;20032;-65
2023/04/12 08:24:25;;;;;;;6.93;6.32;;;;;;;;;;5053076;28;20536;-65
2023/04/12 08:26:50;;;;;;;7.57;6.35;;;;;;;;;;5043579;28;20031;-65
2023/04/12 08:29:17;;;;;;;6.68;6.28;;;;;;;;;;5046587;28;20098;-65
2023/04/12 08:31:43;;;;;;;7.88;6.63;;;;;;;;;;5045712;28;20068;-65
2023/04/12 08:34:08;;;;;;;7.72;6.72;;;;;;;;;;5043810;28;20076;-65
2023/04/12 08:36:34;;;;;;;8.30;7.28;;;;;;;;;;5043729;28;20037;-65
2023/04/12 08:39:00;;;;;;;6.57;5.97;;;;;;;;;;5048773;28;20033;-65
2023/04/12 08:41:26;;;;;;;7.43;6.65;;;;;;;;;;5038635;28;20087;-65
2023/04/12 08:43:54;;;;;;;7.55;6.85;;;;;;;;;;5047924;28;20043;-65
2023/04/12 08:46:20;;;;;;;7.40;6.80;;;;;;;;;;5047845;28;20600;-65
2023/04/12 08:48:52;;;;;;;6.43;6.00;;;;;;;;;;5049970;28;20500;-65
2023/04/12 08:51:19;;;;;;;6.85;6.18;;;;;;;;;;5043635;28;20045;-65
2023/04/12 08:53:45;;;;;;;7.05;6.07;;;;;;;;;;5049500;28;20078;-65
2023/04/12 08:56:12;;;;;;;5.75;5.45;;;;;;;;;;5047343;28;20053;-65
2023/04/12 08:58:47;;;;;;;7.95;5.55;;;;;;;;;;5048169;28;20024;-65
2023/04/12 09:01:14;;;;;;;6.13;5.72;;;;;;;;;;5045802;28;20049;-65
2023/04/12 09:03:42;;;;;;;6.78;6.18;;;;;;;;;;5049972;28;20033;-65
2023/04/12 09:06:08;;;;;;;6.35;5.75;;;;;;;;;;5047211;28;20043;-65
2023/04/12 09:08:34;;;;;;;5.97;5.47;;;;;;;;;;5048310;28;20033;-65
2023/04/12 09:11:00;;;;;;;6.18;5.65;;;;;;;;;;5048292;28;20563;-65
2023/04/12 09:13:35;;;;;;;7.28;5.72;;;;;;;;;;5053455;28;20436;-65
2023/04/12 09:16:02;;;;;;;6.00;5.60;;;;;;;;;;5046791;28;20440;-65
2023/04/12 09:18:28;;;;;;;5.93;5.55;;;;;;;;;;5049234;28;20071;-65
2023/04/12 09:21:10;;;;;;;6.47;5.97;;;;;;;;;;5051104;28;20028;-65
2023/04/12 09:23:36;;;;;;;6.15;5.60;;;;;;;;;;5044893;28;20036;-65
2023/04/12 09:26:02;;;;;;;6.28;5.78;;;;;;;;;;5047954;28;20055;-65
2023/04/12 09:28:28;;;;;;;5.70;5.40;;;;;;;;;;5026936;28;20048;-65
2023/04/12 09:30:56;;;;;;;6.07;5.72;;;;;;;;;;5048059;28;20033;-65
2023/04/12 09:33:31;;;;;;;7.28;6.65;;;;;;;;;;5042944;28;20273;-65
2023/04/12 09:36:03;;;;;;;6.63;6.20;;;;;;;;;;5049868;28;20029;-65
2023/04/12 09:38:30;;;;;;;7.50;6.80;;;;;;;;;;5052147;28;20048;-65
2023/04/12 09:40:56;;;;;;;19.63;14.65;;;;;;;;;;5047199;28;20036;-65
2023/04/12 09:43:38;;;;;;;12.15;10.88;;;;;;;;;;5044936;28;20032;-65
2023/04/12 09:46:13;;;;;;;8.18;7.47;;;;;;;;;;5051424;28;20033;-65
2023/04/12 09:48:40;;;;;;;7.15;6.45;;;;;;;;;;5050169;28;20707;-65
2023/04/12 09:51:06;;;;;;;7.03;6.40;;;;;;;;;;5045496;28;20032;-65
2023/04/12 09:53:34;;;;;;;6.82;6.30;;;;;;;;;;5047910;28;20295;-65
2023/04/12 09:56:07;;;;;;;;;;;;;;;;;;5052199;28;20576;-65
2023/04/12 09:58:35;;;;;;;6.93;6.43;;;;;;;;;;5048291;28;20005;-65
2023/04/12 10:01:02;;;;;;;6.57;6.18;;;;;;;;;;5043736;28;20052;-66
2023/04/12 10:03:28;;;;;;;6.63;6.13;;;;;;;;;;5050662;28;20122;-66
2023/04/12 10:05:54;;;;;;;6.90;6.30;;;;;;;;;;5050701;28;20025;-65
2023/04/12 10:08:22;;;;;;;6.43;5.90;;;;;;;;;;5047316;28;20094;-65
2023/04/12 10:10:47;;;;;;;8.18;6.30;;;;;;;;;;5044544;28;20025;-65
2023/04/12 10:13:14;;;;;;;6.90;5.88;;;;;;;;;;5050464;28;20051;-65
2023/04/12 10:15:40;;;;;;;6.65;6.18;;;;;;;;;;5048953;28;20056;-65
2023/04/12 10:18:10;;;;;;;6.60;5.97;;;;;;;;;;5050073;28;20041;-66
2023/04/12 10:20:39;;;;;;;7.07;6.50;;;;;;;;;;5045255;28;20114;-66
2023/04/12 10:23:05;;;;;;;;;;;;;;;;;;5032697;28;20052;-65
2023/04/12 10:25:31;;;;;;;6.10;5.60;;;;;;;;;;5048897;28;19917;-65
2023/04/12 10:28:12;;;;;;;5.80;5.30;;;;;;;;;;5046123;28;20037;-65
2023/04/12 10:30:38;;;;;;;5.35;4.85;;;;;;;;;;5050536;28;20779;-65
2023/04/12 10:33:03;;;;;;;6.95;5.10;;;;;;;;;;5049875;28;20095;-66
2023/04/12 10:35:47;;;;;;;5.18;4.70;;;;;;;;;;5050465;28;20060;-65
2023/04/12 10:38:13;;;;;;;5.20;4.75;;;;;;;;;;5044246;28;20040;-66
2023/04/12 10:41:06;;;;;;;5.40;5.00;;;;;;;;;;5045171;28;20078;-65
2023/04/12 10:43:31;;;;;;;5.47;5.03;;;;;;;;;;5047032;28;20068;-65
2023/04/12 10:46:03;;;;;;;5.00;4.60;;;;;;;;;;5046341;28;20029;-65
2023/04/12 10:48:32;;;;;;;4.93;4.63;;;;;;;;;;5046425;28;20039;-65
2023/04/12 10:51:20;;;;;;;5.20;4.45;;;;;;;;;;5048478;28;20043;-66
2023/04/12 10:53:45;;;;;;;4.60;4.30;;;;;;;;;;5046172;28;20029;-65
2023/04/12 10:56:33;;;;;;;5.05;4.65;;;;;;;;;;5026115;28;20076;-66
2023/04/12 10:59:00;;;;;;;4.95;4.57;;;;;;;;;;5050005;28;20484;-65
2023/04/12 11:01:30;;;;;;;5.03;4.55;;;;;;;;;;5030033;28;20035;-65
2023/04/12 11:04:04;;;;;;;5.07;4.70;;;;;;;;;;5047961;28;20037;-65
2023/04/12 11:07:02;;;;;;;5.03;4.70;;;;;;;;;;5046099;28;20049;-66
2023/04/12 11:09:47;;;;;;;4.85;4.55;;;;;;;;;;4987212;28;20057;-65
2023/04/12 11:12:27;;;;;;;4.80;4.40;;;;;;;;;;4969592;28;20077;-66
2023/04/12 11:14:59;;;;;;;4.60;4.20;;;;;;;;;;4976218;28;20037;-66
2023/04/12 11:17:26;;;;;;;4.78;4.45;;;;;;;;;;4976916;28;20513;-66
2023/04/12 11:19:54;;;;;;;5.32;4.38;;;;;;;;;;4984226;28;20046;-65
2023/04/12 11:22:21;;;;;;;4.30;3.97;;;;;;;;;;4983704;28;20107;-66
2023/04/12 11:24:53;;;;;;;5.10;4.50;;;;;;;;;;4984262;28;20420;-66
2023/04/12 11:27:20;;;;;;;5.25;4.65;;;;;;;;;;4985065;28;20065;-66
2023/04/12 11:29:51;;;;;;;4.65;4.35;;;;;;;;;;4985746;28;20053;-66
2023/04/12 11:32:17;;;;;;;8.75;4.32;;;;;;;;;;4982326;28;20050;-66
2023/04/12 11:34:46;;;;;;;4.50;4.30;;;;;;;;;;4985942;28;20049;-66
2023/04/12 11:37:12;;;;;;;4.40;3.90;;;;;;;;;;4983637;28;20050;-66
2023/04/12 11:39:40;;;;;;;4.45;4.07;;;;;;;;;;4983089;28;20054;-66
2023/04/12 11:42:08;;;;;;;5.03;3.85;;;;;;;;;;4984627;28;20074;-66
2023/04/12 11:44:35;;;;;;;4.38;4.10;;;;;;;;;;4983227;28;20042;-66
2023/04/12 11:47:02;;;;;;;3.72;3.53;;;;;;;;;;5045622;28;20289;-66
2023/04/12 11:49:28;;;;;;;4.18;3.97;;;;;;;;;;5042443;28;20481;-66
2023/04/12 11:52:03;;;;;;;4.18;3.97;;;;;;;;;;5045096;28;20244;-66
2023/04/12 11:54:30;;;;;;;4.50;4.20;;;;;;;;;;5046123;28;20128;-66
2023/04/12 11:56:57;;;;;;;4.40;4.00;;;;;;;;;;5046809;28;20481;-66
2023/04/12 11:59:32;;;;;;;4.10;3.85;;;;;;;;;;5043146;28;20492;-66
2023/04/12 12:02:01;;;;;;;3.90;3.70;;;;;;;;;;5051356;28;20275;-66
2023/04/12 12:04:28;;;;;;;3.90;3.70;;;;;;;;;;5049564;28;20025;-66
2023/04/12 12:06:57;;;;;;;3.70;3.50;;;;;;;;;;5040401;28;20032;-66
2023/04/12 12:09:24;;;;;;;4.15;3.80;;;;;;;;;;5048414;28;20059;-66
2023/04/12 12:11:50;;;;;;;4.25;3.95;;;;;;;;;;5048018;28;20568;-66
2023/04/12 12:14:20;;;;;;;4.20;3.90;;;;;;;;;;5049054;28;20045;-66
2023/04/12 12:16:57;;;;;;;3.80;3.60;;;;;;;;;;5045758;28;20116;-66
2023/04/12 12:19:43;;;;;;;4.63;3.78;;;;;;;;;;5048207;28;20040;-66
2023/04/12 12:22:17;;;;;;;3.70;3.50;;;;;;;;;;5046175;28;20051;-67
2023/04/12 12:24:46;;;;;;;3.55;3.35;;;;;;;;;;5048424;28;20499;-67
2023/04/12 12:27:12;;;;;;;;;;;;;;;;;;5047359;28;20053;-67
2023/04/12 12:29:38;;;;;;;3.65;3.45;;;;;;;;;;5050313;28;19967;-66
2023/04/12 12:32:13;;;;;;;4.22;3.60;;;;;;;;;;5048041;28;20061;-66
2023/04/12 12:34:40;;;;;;;4.20;3.90;;;;;;;;;;5045816;28;20041;-66
2023/04/12 12:37:07;;;;;;;3.95;3.65;;;;;;;;;;5051107;28;20094;-66
2023/04/12 12:39:32;;;;;;;3.75;3.50;;;;;;;;;;5046244;28;20036;-66
2023/04/12 12:41:59;;;;;;;4.10;3.80;;;;;;;;;;5044097;28;20032;-66
2023/04/12 12:44:24;;;;;;;4.00;3.67;;;;;;;;;;5046848;28;20044;-67
2023/04/12 12:46:50;;;;;;;3.97;3.67;;;;;;;;;;5047959;28;20095;-66
2023/04/12 12:49:17;;;;;;;3.53;3.40;;;;;;;;;;5045206;28;20040;-67
2023/04/12 12:51:43;;;;;;;4.30;4.00;;;;;;;;;;5047263;28;20089;-67
2023/04/12 12:54:08;;;;;;;4.05;3.75;;;;;;;;;;5051085;28;20438;-67
2023/04/12 12:56:37;;;;;;;4.10;3.80;;;;;;;;;;5047187;28;20296;-67
2023/04/12 12:59:02;;;;;;;4.25;3.95;;;;;;;;;;5044845;28;20041;-66
2023/04/12 13:01:28;;;;;;;4.15;3.75;;;;;;;;;;5046451;28;20048;-67
2023/04/12 13:03:53;;;;;;;4.18;3.90;;;;;;;;;;5050065;28;20119;-66
2023/04/12 13:06:19;;;;;;;3.97;3.65;;;;;;;;;;5045861;28;20507;-67
2023/04/12 13:08:45;;;;;;;4.18;3.88;;;;;;;;;;5044421;28;20066;-67
2023/04/12 13:11:11;;;;;;;4.03;3.58;;;;;;;;;;5046798;28;20076;-66
2023/04/12 13:13:36;;;;;;;4.18;3.88;;;;;;;;;;5043605;28;20083;-66
2023/04/12 13:16:02;;;;;;;4.43;3.70;;;;;;;;;;5047457;28;20044;-66
2023/04/12 13:18:27;;;;;;;4.10;3.80;;;;;;;;;;5045920;28;20469;-66
2023/04/12 13:20:53;;;;;;;3.45;3.28;;;;;;;;;;5046837;28;20037;-66
2023/04/12 13:23:18;;;;;;;3.95;3.70;;;;;;;;;;5045780;28;20036;-67
2023/04/12 13:25:44;;;;;;;3.90;3.70;;;;;;;;;;5047049;28;20025;-67
2023/04/12 13:28:11;;;;;;;4.53;4.05;;;;;;;;;;5045800;28;20047;-67
2023/04/12 13:30:36;;;;;;;4.20;4.00;;;;;;;;;;5048811;28;20032;-67
2023/04/12 13:33:02;;;;;;;4.47;4.18;;;;;;;;;;5044348;28;20106;-67
2023/04/12 13:35:28;;;;;;;4.00;3.80;;;;;;;;;;5048030;28;20033;-67
2023/04/12 13:37:53;;;;;;;3.80;3.53;;;;;;;;;;5047385;28;20033;-66
2023/04/12 13:40:19;;;;;;;3.90;3.70;;;;;;;;;;5046001;28;20047;-67
2023/04/12 13:42:45;;;;;;;4.03;3.65;;;;;;;;;;5042879;28;20044;-67
2023/04/12 13:45:11;;;;;;;4.15;3.75;;;;;;;;;;5048203;28;20502;-66
2023/04/12 13:47:37;;;;;;;3.58;3.33;;;;;;;;;;5044480;28;20428;-67
2023/04/12 13:50:03;;;;;;;3.55;3.35;;;;;;;;;;5050964;28;20036;-67
2023/04/12 13:52:28;;;;;;;3.90;3.70;;;;;;;;;;5043841;28;20043;-67
2023/04/12 13:54:54;;;;;;;3.72;3.53;;;;;;;;;;5044229;28;20436;-67
2023/04/12 13:57:19;;;;;;;4.10;3.80;;;;;;;;;;5047997;28;20556;-67
2023/04/12 13:59:45;;;;;;;3.90;3.70;;;;;;;;;;5045135;28;20045;-67
2023/04/12 14:02:10;;;;;;;3.88;3.63;;;;;;;;;;5043230;28;20040;-67
2023/04/12 14:04:49;;;;;;;3.88;3.67;;;;;;;;;;5046601;28;20043;-66
2023/04/12 14:07:15;;;;;;;4.18;3.83;;;;;;;;;;5047398;28;20066;-67
2023/04/12 14:09:40;;;;;;;3.95;3.63;;;;;;;;;;5047024;28;20036;-67
2023/04/12 14:12:06;;;;;;;4.20;4.00;;;;;;;;;;5043373;28;20036;-67
2023/04/12 14:14:32;;;;;;;4.13;3.90;;;;;;;;;;5048252;28;20032;-67
2023/04/12 14:16:57;;;;;;;4.10;3.80;;;;;;;;;;5044214;28;20036;-66
2023/04/12 14:19:23;;;;;;;4.10;3.70;;;;;;;;;;5041526;28;20094;-66
2023/04/12 14:21:49;;;;;;;4.30;4.00;;;;;;;;;;5043162;28;20482;-66
2023/04/12 14:24:17;;;;;;;4.07;3.88;;;;;;;;;;5030760;28;20094;-67
2023/04/12 14:26:44;;;;;;;3.50;3.30;;;;;;;;;;5048239;28;20028;-67
2023/04/12 14:29:10;;;;;;;4.20;3.80;;;;;;;;;;5048237;28;20041;-67
2023/04/12 14:31:36;;;;;;;3.95;3.75;;;;;;;;;;5048798;28;20024;-67
2023/04/12 14:34:03;;;;;;;3.80;3.60;;;;;;;;;;5047895;28;20558;-67
2023/04/12 14:36:29;;;;;;;3.80;3.55;;;;;;;;;;5045496;28;20112;-67
2023/04/12 14:38:55;;;;;;;3.90;3.60;;;;;;;;;;5047856;28;20446;-67
2023/04/12 14:41:21;;;;;;;3.78;3.58;;;;;;;;;;5048335;28;20029;-66
2023/04/12 14:43:46;;;;;;;3.90;3.70;;;;;;;;;;5051025;28;20528;-67
2023/04/12 14:46:12;;;;;;;4.10;3.90;;;;;;;;;;5044106;28;20120;-67
2023/04/12 14:48:38;;;;;;;4.40;4.10;;;;;;;;;;5048621;28;20040;-67